Time;durP1;ratioP1;P1;durP2;ratioP2;P2;SDS_P1;SDS_P2;PMS_P1;PMS_P2;Temp;Humidity;BMP_temperature;BMP_pressure;BME280_temperature;BME280_humidity;BME280_pressure;Samples;Min_cycle;Max_cycle;Signal;HPM_P1;HPM_P2
2021/10/14 00:00:26;;;;;;;4.25;2.63;;;;;;;8.46;88.71;101714.88;6218358;23;20015;-75
2021/10/14 00:02:51;;;;;;;5.55;2.38;;;;;;;8.46;88.57;101710.19;6191260;23;20031;-74
2021/10/14 00:05:17;;;;;;;4.60;2.75;;;;;;;8.42;88.35;101700.72;6218601;23;20012;-74
2021/10/14 00:07:42;;;;;;;4.53;2.38;;;;;;;8.37;88.77;101695.06;6217781;23;20008;-74
2021/10/14 00:10:08;;;;;;;4.15;2.60;;;;;;;8.36;88.91;101703.59;6218084;23;20046;-74
2021/10/14 00:12:34;;;;;;;3.70;2.50;;;;;;;8.31;88.87;101701.59;6191723;23;20005;-74
2021/10/14 00:14:59;;;;;;;6.95;2.83;;;;;;;8.29;89.16;101696.28;6217984;23;20449;-74
2021/10/14 00:17:25;;;;;;;4.45;2.60;;;;;;;8.26;89.00;101693.19;6218144;23;20500;-74
2021/10/14 00:19:50;;;;;;;4.47;2.90;;;;;;;8.25;89.23;101694.28;6218458;23;20535;-74
2021/10/14 00:22:16;;;;;;;4.20;2.90;;;;;;;8.20;89.45;101695.03;6218090;23;20005;-73
2021/10/14 00:24:41;;;;;;;5.57;3.05;;;;;;;8.20;89.80;101697.81;6217865;23;20017;-74
2021/10/14 00:27:07;;;;;;;5.07;3.20;;;;;;;8.17;89.63;101698.31;6218287;23;20334;-74
2021/10/14 00:29:32;;;;;;;5.13;3.33;;;;;;;8.19;89.32;101696.13;6191690;23;20040;-74
2021/10/14 00:31:58;;;;;;;4.97;2.60;;;;;;;8.19;89.33;101701.66;6218056;23;20005;-73
2021/10/14 00:34:23;;;;;;;5.00;3.05;;;;;;;8.16;89.27;101698.53;6191860;23;20062;-74
2021/10/14 00:36:49;;;;;;;4.05;2.83;;;;;;;8.16;89.03;101693.00;6217852;23;20013;-74
2021/10/14 00:39:14;;;;;;;7.38;2.70;;;;;;;8.15;88.90;101694.09;6217801;23;20008;-74
2021/10/14 00:41:40;;;;;;;4.20;3.05;;;;;;;8.12;88.83;101698.19;6218314;23;20005;-74
2021/10/14 00:44:05;;;;;;;4.80;2.63;;;;;;;8.12;88.73;101697.38;6217858;23;20009;-74
2021/10/14 00:46:31;;;;;;;4.90;2.80;;;;;;;8.07;88.82;101698.09;6217968;23;20504;-74
2021/10/14 00:48:56;;;;;;;3.58;2.60;;;;;;;8.02;89.05;101696.09;6192069;23;20004;-74
2021/10/14 00:51:21;;;;;;;4.03;2.78;;;;;;;8.02;88.84;101695.22;6166340;23;20008;-74
2021/10/14 00:53:47;;;;;;;4.70;2.85;;;;;;;7.97;89.06;101693.25;6217744;23;20015;-73
2021/10/14 00:56:13;;;;;;;5.03;2.60;;;;;;;7.96;88.91;101685.16;6218228;23;20095;-74
2021/10/14 00:58:38;;;;;;;4.97;2.75;;;;;;;7.93;88.79;101680.13;6166753;23;20000;-74
2021/10/14 01:01:04;;;;;;;4.13;2.55;;;;;;;7.91;88.98;101674.00;6143921;23;20017;-74
2021/10/14 01:03:30;;;;;;;8.35;2.70;;;;;;;7.89;88.87;101677.03;6219822;23;20009;-74
2021/10/14 01:05:56;;;;;;;3.47;2.33;;;;;;;7.87;88.69;101672.84;6217751;23;20009;-74
2021/10/14 01:08:21;;;;;;;5.78;2.70;;;;;;;7.84;88.81;101671.41;6168279;23;20103;-74
2021/10/14 01:10:47;;;;;;;7.00;2.65;;;;;;;7.79;88.91;101665.78;6168500;23;20004;-74
2021/10/14 01:13:12;;;;;;;4.13;2.35;;;;;;;7.77;89.04;101666.03;6219505;23;20012;-74
2021/10/14 01:15:38;;;;;;;3.95;2.33;;;;;;;7.77;88.78;101674.31;6168462;23;20350;-74
2021/10/14 01:18:03;;;;;;;3.63;2.58;;;;;;;7.71;88.86;101664.22;6219642;23;20036;-74
2021/10/14 01:20:29;;;;;;;4.15;2.50;;;;;;;7.68;89.01;101664.72;6219473;23;20307;-74
2021/10/14 01:22:55;;;;;;;3.53;2.55;;;;;;;7.73;88.68;101661.22;6219449;23;20013;-74
2021/10/14 01:25:20;;;;;;;5.00;2.80;;;;;;;7.64;88.92;101671.03;6167986;23;20464;-74
2021/10/14 01:27:48;;;;;;;6.00;2.60;;;;;;;7.61;89.08;101666.81;6192923;23;20008;-74
2021/10/14 01:30:14;;;;;;;3.65;2.67;;;;;;;7.59;88.90;101657.91;6219739;23;20086;-74
2021/10/14 01:32:39;;;;;;;5.63;2.47;;;;;;;7.55;89.04;101660.34;6219294;23;20008;-74
2021/10/14 01:35:05;;;;;;;4.53;2.65;;;;;;;7.54;88.87;101666.09;6219612;23;20009;-74
2021/10/14 01:37:31;;;;;;;4.57;2.25;;;;;;;7.51;89.02;101658.31;6219560;23;20146;-73
2021/10/14 01:39:57;;;;;;;3.90;2.70;;;;;;;7.45;89.18;101648.25;6192035;23;20338;-74
2021/10/14 01:42:22;;;;;;;4.50;2.58;;;;;;;7.43;88.84;101648.47;6219515;23;20008;-73
2021/10/14 01:44:48;;;;;;;3.47;2.30;;;;;;;7.39;89.05;101650.06;6193080;23;20004;-74
2021/10/14 01:47:13;;;;;;;3.22;2.30;;;;;;;7.33;89.07;101642.75;6192501;23;20008;-74
2021/10/14 01:49:38;;;;;;;5.15;2.40;;;;;;;7.29;89.04;101639.63;6219605;23;20013;-74
2021/10/14 01:52:04;;;;;;;4.03;2.17;;;;;;;7.29;88.94;101644.31;6219234;23;20445;-73
2021/10/14 01:54:30;;;;;;;3.40;2.20;;;;;;;7.29;88.95;101645.16;6192377;23;20004;-74
2021/10/14 01:56:55;;;;;;;3.65;2.25;;;;;;;7.24;88.87;101646.97;6219625;23;20015;-74
2021/10/14 01:59:20;;;;;;;4.18;2.72;;;;;;;7.21;89.01;101645.53;6192748;23;20042;-74
2021/10/14 02:01:46;;;;;;;4.65;2.45;;;;;;;7.22;88.72;101646.38;6218974;23;20055;-74
2021/10/14 02:04:11;;;;;;;4.15;2.42;;;;;;;7.16;89.11;101646.28;6219533;23;20035;-74
2021/10/14 02:06:37;;;;;;;3.90;2.25;;;;;;;7.18;88.98;101643.25;6218826;23;20004;-74
2021/10/14 02:09:03;;;;;;;4.38;2.42;;;;;;;7.14;88.83;101647.59;6192265;23;20016;-74
2021/10/14 02:11:29;;;;;;;3.45;2.20;;;;;;;7.14;88.96;101642.91;6219146;23;20038;-74
2021/10/14 02:13:54;;;;;;;4.32;2.30;;;;;;;7.11;89.02;101642.56;6218738;23;20140;-74
2021/10/14 02:16:20;;;;;;;4.18;2.42;;;;;;;7.06;88.77;101642.44;6219392;23;20064;-74
2021/10/14 02:18:45;;;;;;;3.70;2.40;;;;;;;7.06;88.87;101634.16;6219322;23;20005;-74
2021/10/14 02:21:11;;;;;;;3.05;2.30;;;;;;;7.05;88.99;101643.50;6218730;22;20016;-74
2021/10/14 02:23:37;;;;;;;3.67;2.40;;;;;;;6.99;88.87;101641.72;6218986;23;20012;-74
2021/10/14 02:26:02;;;;;;;4.68;2.55;;;;;;;6.94;88.95;101646.06;6219057;23;20053;-74
2021/10/14 02:28:28;;;;;;;3.10;2.13;;;;;;;6.93;89.06;101649.06;6218727;23;20005;-74
2021/10/14 02:30:53;;;;;;;3.63;2.40;;;;;;;6.90;88.91;101650.38;6219093;23;20017;-74
2021/10/14 02:33:19;;;;;;;4.38;2.40;;;;;;;6.89;89.00;101656.16;6219323;23;20008;-74
2021/10/14 02:35:44;;;;;;;4.47;2.72;;;;;;;6.88;88.70;101652.56;6218805;23;20013;-74
2021/10/14 02:38:10;;;;;;;3.88;2.03;;;;;;;6.86;88.78;101643.69;6218725;23;20015;-74
2021/10/14 02:40:35;;;;;;;3.47;2.13;;;;;;;6.80;88.73;101650.19;6192386;23;20008;-73
2021/10/14 02:43:02;;;;;;;4.22;2.60;;;;;;;6.81;88.64;101645.50;6192063;23;20013;-73
2021/10/14 02:45:27;;;;;;;3.20;2.22;;;;;;;6.80;88.63;101641.88;6219029;23;20012;-73
2021/10/14 02:47:53;;;;;;;4.78;2.47;;;;;;;6.75;88.91;101639.00;6218687;23;20093;-74
2021/10/14 02:50:18;;;;;;;4.50;2.45;;;;;;;6.73;88.86;101641.16;6218616;23;20012;-73
2021/10/14 02:52:44;;;;;;;3.45;2.42;;;;;;;6.74;88.46;101642.00;6191991;23;20393;-73
2021/10/14 02:55:09;;;;;;;3.58;2.38;;;;;;;6.71;88.69;101646.06;6218682;23;20011;-73
2021/10/14 02:57:35;;;;;;;6.22;2.70;;;;;;;6.69;88.78;101642.75;6192165;23;20058;-73
2021/10/14 03:00:00;;;;;;;3.50;2.38;;;;;;;6.69;88.73;101645.50;6219002;23;20005;-73
2021/10/14 03:02:26;;;;;;;4.03;2.42;;;;;;;6.63;88.71;101643.66;6218048;23;20005;-74
2021/10/14 03:04:51;;;;;;;5.18;2.50;;;;;;;6.62;88.67;101642.00;6192367;23;20008;-73
2021/10/14 03:07:17;;;;;;;5.18;3.10;;;;;;;6.61;88.93;101637.56;6192291;23;20011;-74
2021/10/14 03:09:42;;;;;;;5.05;2.50;;;;;;;6.60;89.08;101644.16;6218016;23;20020;-74
2021/10/14 03:12:08;;;;;;;4.40;2.63;;;;;;;6.58;89.23;101629.78;6192118;23;20015;-73
2021/10/14 03:14:33;;;;;;;3.90;2.40;;;;;;;6.55;89.13;101630.25;6192201;23;20008;-74
2021/10/14 03:16:59;;;;;;;4.10;2.47;;;;;;;6.57;89.14;101633.59;6218379;23;20008;-74
2021/10/14 03:19:24;;;;;;;5.60;2.95;;;;;;;6.56;89.19;101624.47;6167288;23;20004;-74
2021/10/14 03:21:49;;;;;;;6.45;2.55;;;;;;;6.56;89.34;101632.75;6218598;23;20063;-74
2021/10/14 03:24:15;;;;;;;4.40;3.08;;;;;;;6.55;89.34;101628.34;6217932;23;20012;-74
2021/10/14 03:26:40;;;;;;;4.88;2.80;;;;;;;6.54;89.17;101623.03;6218422;23;20512;-74
2021/10/14 03:29:06;;;;;;;5.10;2.80;;;;;;;6.55;89.48;101633.84;6218692;23;20015;-74
2021/10/14 03:31:32;;;;;;;4.68;2.70;;;;;;;6.55;89.37;101630.25;6218398;23;20008;-74
2021/10/14 03:33:57;;;;;;;6.97;2.53;;;;;;;6.53;89.39;101626.91;6218625;23;20429;-74
2021/10/14 03:36:23;;;;;;;4.45;2.90;;;;;;;6.52;89.44;101637.09;6191874;23;20020;-74
2021/10/14 03:38:48;;;;;;;5.03;2.80;;;;;;;6.53;89.37;101637.94;6217809;23;20016;-75
2021/10/14 03:41:14;;;;;;;5.97;2.38;;;;;;;6.54;89.37;101639.59;6192036;23;20013;-74
2021/10/14 03:43:39;;;;;;;4.63;2.40;;;;;;;6.51;89.15;101635.41;6218824;23;20055;-74
2021/10/14 03:46:05;;;;;;;4.82;2.35;;;;;;;6.50;89.34;101639.25;6218203;23;20012;-74
2021/10/14 03:48:30;;;;;;;3.92;2.25;;;;;;;6.47;89.06;101635.03;6192284;23;20015;-74
2021/10/14 03:50:55;;;;;;;4.60;2.63;;;;;;;6.45;89.21;101642.72;6191693;23;20437;-74
2021/10/14 03:53:21;;;;;;;4.15;2.33;;;;;;;6.40;89.56;101639.81;6218135;23;20008;-74
2021/10/14 03:55:46;;;;;;;3.92;2.38;;;;;;;6.42;89.28;101643.19;6192151;23;20016;-74
2021/10/14 03:58:12;;;;;;;4.97;2.33;;;;;;;6.34;89.54;101645.47;6218062;23;20019;-74
2021/10/14 04:00:37;;;;;;;5.13;2.58;;;;;;;6.32;89.62;101637.41;6191888;23;20013;-74
2021/10/14 04:03:03;;;;;;;3.90;2.50;;;;;;;6.32;89.19;101642.94;6218419;23;20073;-74
2021/10/14 04:05:28;;;;;;;5.32;2.50;;;;;;;6.25;89.40;101629.25;6217904;23;20013;-74
2021/10/14 04:07:54;;;;;;;3.88;2.83;;;;;;;6.23;89.62;101631.41;6218190;23;20059;-74
2021/10/14 04:10:19;;;;;;;3.60;2.67;;;;;;;6.18;89.85;101624.94;6218490;23;20005;-74
2021/10/14 04:12:45;;;;;;;4.55;2.60;;;;;;;6.17;89.45;101626.84;6217846;23;20350;-75
2021/10/14 04:15:10;;;;;;;3.97;2.88;;;;;;;6.13;89.42;101625.66;6218573;23;20035;-74
2021/10/14 04:17:36;;;;;;;6.10;2.97;;;;;;;6.15;89.53;101620.72;6191451;23;20009;-74
2021/10/14 04:20:02;;;;;;;5.57;3.10;;;;;;;6.10;89.35;101615.09;6166863;23;20004;-74
2021/10/14 04:22:28;;;;;;;4.40;2.80;;;;;;;6.09;89.22;101616.16;6191326;23;20012;-74
2021/10/14 04:24:53;;;;;;;6.20;2.83;;;;;;;6.07;89.21;101620.22;6191350;23;20021;-74
2021/10/14 04:27:19;;;;;;;5.57;3.35;;;;;;;6.03;89.29;101619.88;6218062;23;20036;-74
2021/10/14 04:29:44;;;;;;;3.50;2.55;;;;;;;5.99;89.25;101627.78;6218444;23;20040;-73
2021/10/14 04:32:10;;;;;;;4.38;2.70;;;;;;;5.97;89.22;101624.41;6217783;23;20009;-73
2021/10/14 04:34:36;;;;;;;5.15;2.90;;;;;;;5.96;89.26;101628.28;6218959;23;20004;-72
2021/10/14 04:37:03;;;;;;;5.55;2.40;;;;;;;5.91;89.13;101630.03;6220312;23;20009;-73
2021/10/14 04:39:28;;;;;;;5.90;2.60;;;;;;;5.90;89.24;101628.31;6192410;23;20418;-73
2021/10/14 04:41:54;;;;;;;4.50;2.40;;;;;;;5.88;89.37;101636.84;6219867;23;20004;-73
2021/10/14 04:44:19;;;;;;;4.03;2.63;;;;;;;5.85;89.22;101631.81;6220200;23;20001;-73
2021/10/14 04:46:45;;;;;;;4.55;2.45;;;;;;;5.82;89.26;101635.00;6219703;23;20059;-73
2021/10/14 04:49:10;;;;;;;5.18;2.75;;;;;;;5.79;89.29;101636.34;6193533;23;20008;-73
2021/10/14 04:51:36;;;;;;;5.90;2.72;;;;;;;5.75;89.48;101648.91;6219812;23;20005;-73
2021/10/14 04:54:01;;;;;;;3.35;2.30;;;;;;;5.76;89.38;101638.72;6219457;23;20004;-73
2021/10/14 04:56:26;;;;;;;4.75;2.47;;;;;;;5.72;89.16;101646.63;6220194;23;20008;-73
2021/10/14 04:58:52;;;;;;;4.70;2.55;;;;;;;5.71;89.32;101649.59;6193509;23;20016;-73
2021/10/14 05:01:17;;;;;;;3.75;2.50;;;;;;;5.69;89.12;101654.50;6219605;23;20012;-73
2021/10/14 05:03:43;;;;;;;5.63;2.28;;;;;;;5.66;89.22;101652.22;6193625;23;20353;-73
2021/10/14 05:06:08;;;;;;;6.18;2.88;;;;;;;5.63;89.32;101655.44;6219345;23;20043;-74
2021/10/14 05:08:34;;;;;;;7.28;2.90;;;;;;;5.64;89.31;101649.69;6192940;23;20013;-73
2021/10/14 05:10:59;;;;;;;4.85;2.35;;;;;;;5.60;89.11;101652.09;6220065;23;20008;-74
2021/10/14 05:13:25;;;;;;;4.00;2.13;;;;;;;5.58;89.24;101656.16;6219398;23;20004;-72
2021/10/14 05:15:50;;;;;;;5.03;2.28;;;;;;;5.54;89.31;101652.16;6219685;23;20012;-72
2021/10/14 05:18:16;;;;;;;5.05;2.30;;;;;;;5.47;89.43;101649.50;6220011;23;20005;-72
2021/10/14 05:20:41;;;;;;;4.53;2.42;;;;;;;5.49;89.26;101649.25;6192843;23;20005;-72
2021/10/14 05:23:07;;;;;;;3.70;2.10;;;;;;;5.48;89.25;101653.94;6167976;23;20016;-72
2021/10/14 05:25:32;;;;;;;5.05;2.35;;;;;;;5.44;89.16;101652.72;6193128;23;20024;-72
2021/10/14 05:27:58;;;;;;;4.80;3.08;;;;;;;5.42;89.07;101648.50;6219314;23;20004;-72
2021/10/14 05:30:23;;;;;;;3.70;2.33;;;;;;;5.42;89.07;101643.84;6220363;23;20015;-72
2021/10/14 05:32:49;;;;;;;4.72;2.50;;;;;;;5.39;89.28;101641.56;6219324;23;20095;-72
2021/10/14 05:35:14;;;;;;;4.07;2.40;;;;;;;5.34;89.08;101641.41;6219485;23;20326;-69
2021/10/14 05:37:40;;;;;;;4.07;2.58;;;;;;;5.29;89.42;101641.25;6193071;23;20008;-69
2021/10/14 05:40:06;;;;;;;3.30;2.60;;;;;;;5.29;89.29;101638.50;6192485;23;20005;-69
2021/10/14 05:42:31;;;;;;;5.75;3.05;;;;;;;5.32;89.22;101629.75;6168348;23;20004;-70
2021/10/14 05:44:57;;;;;;;5.88;3.03;;;;;;;5.26;89.37;101630.69;6168402;23;20011;-70
2021/10/14 05:47:22;;;;;;;5.60;3.05;;;;;;;5.25;89.50;101632.63;6118504;23;20008;-69
2021/10/14 05:49:48;;;;;;;4.95;3.05;;;;;;;5.22;89.48;101624.81;6192442;23;20433;-69
2021/10/14 05:52:13;;;;;;;5.03;3.40;;;;;;;5.23;89.35;101623.75;6192965;23;20012;-70
2021/10/14 05:54:39;;;;;;;5.22;3.10;;;;;;;5.21;89.42;101619.53;6192337;23;20008;-69
2021/10/14 05:57:04;;;;;;;5.53;3.22;;;;;;;5.15;89.73;101619.41;6168319;23;20042;-69
2021/10/14 05:59:30;;;;;;;5.80;3.10;;;;;;;5.17;89.54;101623.84;6143775;23;20019;-70
2021/10/14 06:01:55;;;;;;;4.95;3.10;;;;;;;5.11;89.80;101618.16;6167240;23;20027;-69
2021/10/14 06:04:21;;;;;;;5.20;2.95;;;;;;;5.15;89.39;101618.53;6143776;23;20009;-70
2021/10/14 06:06:46;;;;;;;5.95;3.00;;;;;;;5.12;89.28;101619.00;6192749;23;20426;-70
2021/10/14 06:09:12;;;;;;;5.72;3.90;;;;;;;5.12;89.66;101619.00;6167427;23;20009;-69
2021/10/14 06:11:37;;;;;;;6.13;2.80;;;;;;;5.07;89.83;101619.72;6143368;23;20055;-68
2021/10/14 06:14:03;;;;;;;8.52;3.42;;;;;;;5.13;90.26;101618.78;6143392;23;20389;-72
2021/10/14 06:16:28;;;;;;;3.53;2.80;;;;;;;5.21;91.97;101634.16;6167397;23;20075;-72
2021/10/14 06:18:54;;;;;;;11.15;3.20;;;;;;;5.32;91.90;101627.88;6192892;23;20009;-71
2021/10/14 06:21:19;;;;;;;15.23;3.70;;;;;;;5.32;92.21;101632.53;6219014;23;20012;-73
2021/10/14 06:23:45;;;;;;;11.30;3.97;;;;;;;5.36;92.10;101628.25;6218590;23;20040;-70
2021/10/14 06:26:11;;;;;;;9.73;3.95;;;;;;;5.34;91.74;101635.88;6218767;23;20016;-69
2021/10/14 06:28:36;;;;;;;10.57;3.78;;;;;;;5.34;90.93;101625.72;6192329;23;20032;-70
2021/10/14 06:31:02;;;;;;;7.18;3.85;;;;;;;5.31;90.66;101628.09;6192532;23;20016;-71
2021/10/14 06:33:27;;;;;;;7.18;3.85;;;;;;;5.30;90.17;101630.00;6118984;23;20036;-69
2021/10/14 06:35:53;;;;;;;8.27;3.67;;;;;;;5.24;90.24;101619.94;6167210;23;20441;-69
2021/10/14 06:38:18;;;;;;;4.85;3.28;;;;;;;5.23;90.45;101628.41;6167463;23;20071;-69
2021/10/14 06:40:44;;;;;;;7.25;3.47;;;;;;;5.22;90.06;101623.97;6192582;23;20012;-69
2021/10/14 06:43:09;;;;;;;6.57;3.95;;;;;;;5.22;89.87;101623.97;6145314;23;20008;-69
2021/10/14 06:45:36;;;;;;;9.82;3.70;;;;;;;5.19;90.13;101617.03;6167010;23;20020;-69
2021/10/14 06:48:01;;;;;;;8.93;4.53;;;;;;;5.20;90.28;101617.84;6168054;23;20004;-69
2021/10/14 06:50:27;;;;;;;8.48;4.13;;;;;;;5.20;90.59;101626.13;6167055;23;20371;-71
2021/10/14 06:52:53;;;;;;;7.18;4.00;;;;;;;5.25;90.22;101627.09;6118272;23;20062;-70
2021/10/14 06:55:18;;;;;;;5.60;3.85;;;;;;;5.24;90.41;101619.94;6167467;23;20064;-70
2021/10/14 06:57:43;;;;;;;7.78;3.72;;;;;;;5.23;90.94;101623.75;6167194;23;20445;-70
2021/10/14 07:00:09;;;;;;;6.70;3.60;;;;;;;5.27;91.17;101626.88;6167404;23;20027;-70
2021/10/14 07:02:35;;;;;;;7.85;4.18;;;;;;;5.34;91.07;101622.13;6167075;23;20016;-70
2021/10/14 07:05:02;;;;;;;9.20;4.25;;;;;;;5.33;91.27;101618.53;6140013;23;20012;-68
2021/10/14 07:07:27;;;;;;;6.20;4.10;;;;;;;5.42;91.80;101620.97;6143591;23;20031;-69
2021/10/14 07:09:53;;;;;;;7.25;4.07;;;;;;;5.48;92.04;101628.28;6169340;23;20012;-69
2021/10/14 07:12:21;;;;;;;5.35;3.80;;;;;;;5.52;92.21;101619.34;6166558;23;20415;-70
2021/10/14 07:14:46;;;;;;;5.80;3.90;;;;;;;5.62;92.24;101620.69;6142947;23;20008;-69
2021/10/14 07:17:12;;;;;;;5.70;3.60;;;;;;;5.69;92.00;101622.28;6142330;23;20008;-70
2021/10/14 07:19:37;;;;;;;8.13;4.10;;;;;;;5.80;92.05;101615.13;6142553;23;20016;-69
2021/10/14 07:22:03;;;;;;;5.55;3.08;;;;;;;5.89;91.89;101621.97;6118184;23;20031;-70
2021/10/14 07:24:32;;;;;;;8.80;4.13;;;;;;;5.99;92.29;101622.28;6166192;23;20131;-70
2021/10/14 07:26:58;;;;;;;6.57;3.90;;;;;;;6.10;91.91;101619.75;6167593;23;20016;-70
2021/10/14 07:29:24;;;;;;;6.75;3.50;;;;;;;6.21;91.74;101618.94;6167355;23;20658;-70
2021/10/14 07:31:49;;;;;;;7.13;3.42;;;;;;;6.34;92.03;101618.72;6141893;23;20015;-70
2021/10/14 07:34:15;;;;;;;5.28;3.58;;;;;;;6.46;91.99;101625.09;6142518;23;20032;-70
2021/10/14 07:36:41;;;;;;;5.75;3.42;;;;;;;6.57;91.63;101622.56;6195340;23;20311;-70
2021/10/14 07:39:06;;;;;;;7.00;3.60;;;;;;;6.70;91.52;101628.69;6142020;23;20036;-71
2021/10/14 07:41:32;;;;;;;4.82;3.45;;;;;;;6.85;91.67;101627.34;6167598;23;20449;-70
2021/10/14 07:43:57;;;;;;;5.13;3.38;;;;;;;6.98;91.61;101621.56;6166919;23;20005;-70
2021/10/14 07:46:23;;;;;;;4.75;3.22;;;;;;;7.11;91.48;101621.31;6191796;23;20067;-69
2021/10/14 07:48:48;;;;;;;6.57;3.67;;;;;;;7.23;91.90;101624.03;6142842;23;20014;-70
2021/10/14 07:51:14;;;;;;;7.45;3.72;;;;;;;7.35;91.65;101623.97;6166551;23;20008;-69
2021/10/14 07:53:40;;;;;;;4.70;3.35;;;;;;;7.48;91.54;101626.47;6191770;23;20016;-69
2021/10/14 07:56:05;;;;;;;5.70;3.83;;;;;;;7.62;91.75;101627.00;6167207;23;20083;-70
2021/10/14 07:58:31;;;;;;;7.00;3.75;;;;;;;7.75;91.84;101620.34;6166573;23;20047;-69
2021/10/14 08:00:57;;;;;;;6.50;3.72;;;;;;;7.87;92.11;101628.59;6166920;23;20013;-69
2021/10/14 08:03:23;;;;;;;7.70;4.13;;;;;;;8.00;92.56;101622.75;6167015;23;20005;-69
2021/10/14 08:05:48;;;;;;;7.40;4.80;;;;;;;8.12;93.23;101617.97;6191638;23;20062;-69
2021/10/14 08:08:14;;;;;;;9.88;5.05;;;;;;;8.24;93.95;101609.56;6166808;23;20012;-69
2021/10/14 08:10:39;;;;;;;7.43;4.40;;;;;;;8.36;93.75;101617.78;6144291;23;20008;-69
2021/10/14 08:13:05;;;;;;;6.47;4.72;;;;;;;8.49;93.10;101611.94;6144016;23;20008;-69
2021/10/14 08:15:30;;;;;;;8.43;4.55;;;;;;;8.60;93.16;101602.69;6144235;23;20442;-69
2021/10/14 08:17:56;;;;;;;9.50;4.63;;;;;;;8.76;93.01;101614.00;6144534;23;20039;-69
2021/10/14 08:20:21;;;;;;;9.68;4.55;;;;;;;8.91;92.87;101615.06;6144026;23;20009;-70
2021/10/14 08:22:49;;;;;;;7.55;4.53;;;;;;;9.05;93.26;101607.19;6193644;23;20043;-69
2021/10/14 08:25:14;;;;;;;8.57;5.20;;;;;;;9.20;92.92;101605.75;6169448;23;20051;-70
2021/10/14 08:27:41;;;;;;;10.63;5.15;;;;;;;9.35;93.70;101608.69;6168486;23;20013;-69
2021/10/14 08:30:07;;;;;;;8.98;5.00;;;;;;;9.48;93.96;101611.06;6169477;23;20575;-69
2021/10/14 08:32:33;;;;;;;9.52;4.22;;;;;;;9.62;93.43;101614.25;6144293;23;20077;-71
2021/10/14 08:34:58;;;;;;;10.35;5.78;;;;;;;9.75;94.02;101618.53;6168585;23;20016;-69
2021/10/14 08:37:24;;;;;;;9.02;4.82;;;;;;;9.90;93.64;101606.78;6144382;23;20377;-69
2021/10/14 08:39:53;;;;;;;11.52;4.90;;;;;;;10.04;92.39;101603.28;6193447;23;20453;-69
2021/10/14 08:42:19;;;;;;;11.38;5.00;;;;;;;10.19;92.75;101608.13;6119347;23;20047;-69
2021/10/14 08:44:45;;;;;;;9.88;4.70;;;;;;;10.37;93.09;101612.50;6169049;23;20012;-69
2021/10/14 08:47:11;;;;;;;6.75;3.83;;;;;;;10.51;92.35;101610.94;6193182;23;20071;-69
2021/10/14 08:49:37;;;;;;;11.30;4.10;;;;;;;10.69;92.33;101606.03;6219174;23;20024;-70
2021/10/14 08:52:02;;;;;;;8.82;3.65;;;;;;;10.82;92.05;101602.78;6169022;23;20303;-71
2021/10/14 08:54:28;;;;;;;10.23;4.38;;;;;;;10.99;92.17;101599.81;6168174;23;20035;-71
2021/10/14 08:56:54;;;;;;;10.38;3.60;;;;;;;11.12;90.86;101607.66;6168509;23;20017;-69
2021/10/14 08:59:19;;;;;;;9.77;3.78;;;;;;;11.33;89.68;101608.56;6144227;23;20004;-69
2021/10/14 09:02:10;;;;;;;9.65;3.33;;;;;;;11.49;89.25;101609.47;6193003;23;20380;-69
2021/10/14 09:04:58;;;;;;;7.03;3.13;;;;;;;11.60;88.45;101604.78;6218657;23;20486;-69
2021/10/14 09:07:26;;;;;;;8.70;2.80;;;;;;;11.73;88.14;101609.81;6192140;23;20168;-69
2021/10/14 09:09:51;;;;;;;6.72;3.30;;;;;;;11.84;87.27;101617.09;6144090;23;20004;-69
2021/10/14 09:12:18;;;;;;;7.88;3.20;;;;;;;11.98;87.29;101609.06;6143368;23;20008;-69
2021/10/14 09:14:56;;;;;;;8.07;2.97;;;;;;;12.09;87.08;101607.13;6119713;23;20008;-69
2021/10/14 09:17:37;;;;;;;4.60;2.47;;;;;;;12.21;84.93;101602.09;6192821;23;20004;-69
2021/10/14 09:20:27;;;;;;;9.82;2.40;;;;;;;12.33;85.72;101596.25;6219221;23;20066;-69
2021/10/14 09:23:02;;;;;;;6.03;2.35;;;;;;;12.40;85.47;101602.38;6158393;23;20016;-69
2021/10/14 09:25:29;;;;;;;7.25;2.30;;;;;;;12.50;85.56;101595.94;6218338;23;20025;-69
2021/10/14 09:28:04;;;;;;;4.53;2.03;;;;;;;12.62;84.57;101601.22;6219042;23;20337;-69
2021/10/14 09:30:30;;;;;;;6.13;2.20;;;;;;;12.73;85.28;101598.16;6167613;23;20035;-69
2021/10/14 09:32:56;;;;;;;5.75;2.60;;;;;;;12.86;84.94;101599.50;6143858;23;20000;-69
2021/10/14 09:35:24;;;;;;;7.20;2.30;;;;;;;12.99;84.20;101592.50;6167560;23;20012;-69
2021/10/14 09:37:50;;;;;;;6.32;2.70;;;;;;;13.10;84.07;101587.72;6143284;23;20501;-69
2021/10/14 09:40:15;;;;;;;8.80;2.40;;;;;;;13.22;83.12;101592.97;6143827;23;20012;-69
2021/10/14 09:43:02;;;;;;;5.45;2.72;;;;;;;13.35;82.39;101589.59;6167584;23;20056;-69
2021/10/14 09:45:30;;;;;;;11.07;3.30;;;;;;;13.45;81.86;101592.31;6173682;23;20036;-69
2021/10/14 09:48:05;;;;;;;6.22;2.53;;;;;;;13.56;80.63;101579.97;6143928;23;20009;-70
2021/10/14 09:50:31;;;;;;;6.85;2.63;;;;;;;13.66;80.15;101579.09;6191968;23;20016;-69
2021/10/14 09:52:58;;;;;;;9.57;2.78;;;;;;;13.77;80.17;101577.91;6192677;23;20001;-69
2021/10/14 09:55:24;;;;;;;6.90;3.28;;;;;;;13.85;80.05;101574.50;6167899;23;20013;-69
2021/10/14 09:57:50;;;;;;;10.48;3.00;;;;;;;13.96;79.54;101572.47;6167811;23;20004;-69
2021/10/14 10:00:15;;;;;;;8.10;3.03;;;;;;;14.03;79.06;101560.94;6192948;23;20551;-69
2021/10/14 10:02:41;;;;;;;8.18;3.35;;;;;;;14.20;76.85;101569.72;6118771;23;20008;-69
2021/10/14 10:05:07;;;;;;;10.20;3.35;;;;;;;14.28;77.52;101571.06;6167792;23;20015;-69
2021/10/14 10:07:32;;;;;;;6.95;3.08;;;;;;;14.39;75.61;101567.06;6167853;23;20008;-69
2021/10/14 10:09:58;;;;;;;8.18;3.40;;;;;;;14.53;74.57;101564.44;6118919;23;20005;-69
2021/10/14 10:12:24;;;;;;;10.30;3.60;;;;;;;14.58;73.23;101556.00;6167654;23;20009;-69
2021/10/14 10:14:50;;;;;;;10.05;3.30;;;;;;;14.61;72.79;101560.16;6168145;23;20044;-69
2021/10/14 10:17:18;;;;;;;10.93;3.10;;;;;;;14.63;72.22;101553.16;6143288;23;20008;-69
2021/10/14 10:19:48;;;;;;;10.65;3.00;;;;;;;14.74;71.45;101548.28;6168870;23;20047;-69
2021/10/14 10:22:33;;;;;;;10.18;3.17;;;;;;;14.80;73.01;101551.84;6168015;23;20008;-69
2021/10/14 10:25:24;;;;;;;10.63;2.80;;;;;;;14.83;72.47;101548.47;6217542;23;20449;-69
2021/10/14 10:27:52;;;;;;;10.88;3.25;;;;;;;14.95;72.41;101537.69;6217828;23;20004;-69
2021/10/14 10:30:32;;;;;;;9.27;3.05;;;;;;;15.07;70.79;101537.25;6167763;23;20036;-71
2021/10/14 10:32:58;;;;;;;8.55;2.80;;;;;;;15.08;69.55;101536.13;6167704;23;20426;-69
2021/10/14 10:35:46;;;;;;;6.93;2.50;;;;;;;15.10;69.24;101528.25;6118322;23;20100;-69
2021/10/14 10:38:17;;;;;;;7.60;2.75;;;;;;;15.09;66.63;101521.00;6192534;23;20012;-69
2021/10/14 10:40:42;;;;;;;10.07;2.13;;;;;;;15.15;67.04;101525.38;6143337;23;20058;-69
2021/10/14 10:43:11;;;;;;;6.38;2.35;;;;;;;15.14;67.07;101524.56;6191804;23;20009;-69
2021/10/14 10:45:45;;;;;;;10.43;2.85;;;;;;;15.23;67.17;101519.13;6168399;23;20004;-71
2021/10/14 10:48:11;;;;;;;5.40;2.60;;;;;;;15.25;68.24;101514.06;6218450;23;20080;-69
2021/10/14 10:50:37;;;;;;;7.85;2.17;;;;;;;15.27;68.33;101513.78;6142691;23;20005;-71
2021/10/14 10:53:06;;;;;;;5.43;1.92;;;;;;;15.27;68.74;101506.22;6192214;23;20012;-71
2021/10/14 10:55:31;;;;;;;11.13;2.60;;;;;;;15.30;69.39;101505.59;6192063;23;20035;-69
2021/10/14 10:57:57;;;;;;;8.43;1.75;;;;;;;15.41;70.03;101507.13;6217329;23;20410;-69
2021/10/14 11:00:23;;;;;;;11.45;1.95;;;;;;;15.49;68.73;101504.75;6167790;23;20009;-69
2021/10/14 11:03:22;;;;;;;6.80;2.00;;;;;;;15.53;68.53;101498.25;6191786;23;20087;-69
2021/10/14 11:05:58;;;;;;;7.75;2.10;;;;;;;15.60;65.94;101497.84;6191994;23;20087;-69
2021/10/14 11:08:28;;;;;;;7.68;1.63;;;;;;;15.70;65.76;101492.13;6168134;23;20076;-69
2021/10/14 11:11:07;;;;;;;7.78;1.90;;;;;;;15.82;65.79;101494.47;6166947;23;20071;-69
2021/10/14 11:13:37;;;;;;;21.85;10.93;;;;;;;15.88;66.05;101492.41;6192146;23;20029;-69
2021/10/14 11:16:04;;;;;;;11.90;4.13;;;;;;;15.96;66.01;101494.50;6217480;23;20039;-69
2021/10/14 11:18:30;;;;;;;8.05;2.30;;;;;;;16.05;64.07;101484.28;6142853;23;20015;-69
2021/10/14 11:20:59;;;;;;;7.97;1.98;;;;;;;16.12;63.43;101487.50;6142696;23;20446;-69
2021/10/14 11:23:29;;;;;;;5.18;2.03;;;;;;;16.11;63.80;101480.25;6192761;23;20062;-69
2021/10/14 11:26:06;;;;;;;9.80;2.42;;;;;;;16.02;62.91;101480.13;6191826;23;20100;-69
2021/10/14 11:28:51;;;;;;;8.38;2.15;;;;;;;16.00;62.60;101467.56;6168018;23;20087;-69